Time;durP1;ratioP1;P1;durP2;ratioP2;P2;SDS_P1;SDS_P2;PMS_P1;PMS_P2;Temp;Humidity;BMP_temperature;BMP_pressure;BME280_temperature;BME280_humidity;BME280_pressure;Samples;Min_cycle;Max_cycle;Signal;HPM_P1;HPM_P2
2023/03/23 00:01:13;;;;;;;23.23;11.57;;;;;;;6.11;81.72;93889.88;5063979;28;20080;-75
2023/03/23 00:03:40;;;;;;;19.30;10.88;;;;;;;6.15;80.86;93896.19;5064043;28;20033;-75
2023/03/23 00:06:06;;;;;;;19.20;10.05;;;;;;;6.12;80.60;93890.66;5063570;28;20025;-75
2023/03/23 00:08:33;;;;;;;18.73;9.95;;;;;;;6.08;81.10;93882.50;5063860;28;20028;-75
2023/03/23 00:11:00;;;;;;;21.02;10.00;;;;;;;6.11;81.33;93881.16;5063748;28;20013;-75
2023/03/23 00:13:27;;;;;;;17.30;9.70;;;;;;;6.16;80.98;93884.50;5063767;28;20021;-75
2023/03/23 00:15:53;;;;;;;18.23;10.38;;;;;;;6.19;81.33;93889.25;5063724;28;20025;-75
2023/03/23 00:18:22;;;;;;;19.08;10.40;;;;;;;6.21;81.16;93883.69;5063628;28;20043;-75
2023/03/23 00:20:53;;;;;;;17.17;9.82;;;;;;;6.23;81.19;93889.47;5063127;28;20032;-75
2023/03/23 00:23:20;;;;;;;16.38;9.43;;;;;;;6.25;80.61;93891.81;5063396;28;20040;-75
2023/03/23 00:25:52;;;;;;;15.60;9.35;;;;;;;6.24;80.12;93901.63;5063440;28;20062;-75
2023/03/23 00:28:24;;;;;;;18.77;10.55;;;;;;;6.25;79.56;93894.47;5063647;28;20040;-75
2023/03/23 00:30:56;;;;;;;17.75;10.07;;;;;;;6.22;79.13;93898.47;5063299;28;20272;-75
2023/03/23 00:33:22;;;;;;;18.30;10.57;;;;;;;6.14;79.03;93897.25;5063180;28;20035;-75
2023/03/23 00:35:48;;;;;;;18.02;9.50;;;;;;;6.14;78.54;93904.41;5063203;28;20028;-75
2023/03/23 00:38:14;;;;;;;18.52;10.38;;;;;;;6.11;78.43;93908.41;5063142;28;20024;-75
2023/03/23 00:40:39;;;;;;;16.95;8.98;;;;;;;6.07;78.36;93902.13;5063434;28;20227;-75
2023/03/23 00:43:04;;;;;;;15.75;8.38;;;;;;;6.08;77.96;93901.03;5063106;28;20260;-75
2023/03/23 00:45:30;;;;;;;15.43;8.82;;;;;;;6.07;77.92;93906.63;5063123;28;20028;-75
2023/03/23 00:47:56;;;;;;;18.17;9.40;;;;;;;6.03;77.98;93909.03;5063041;28;20102;-75
2023/03/23 00:50:22;;;;;;;19.40;9.57;;;;;;;6.03;77.94;93909.81;5062823;28;20031;-76
2023/03/23 00:52:49;;;;;;;17.92;8.57;;;;;;;6.00;77.84;93917.53;5062840;28;20041;-75
2023/03/23 00:55:15;;;;;;;15.82;8.75;;;;;;;6.01;77.76;93916.47;5063071;28;20009;-75
2023/03/23 00:57:40;;;;;;;19.08;9.43;;;;;;;6.01;77.95;93911.19;5063162;28;20083;-76
2023/03/23 01:00:10;;;;;;;18.65;10.20;;;;;;;6.02;77.78;93920.69;5062813;28;20316;-76
2023/03/23 01:02:36;;;;;;;23.65;11.65;;;;;;;6.02;77.72;93918.84;5062068;28;20188;-76
2023/03/23 01:05:03;;;;;;;21.23;10.23;;;;;;;6.04;78.03;93918.53;5062696;28;20127;-76
2023/03/23 01:07:30;;;;;;;25.05;11.25;;;;;;;6.02;78.27;93916.19;5062757;28;20029;-76
2023/03/23 01:09:57;;;;;;;21.35;11.10;;;;;;;6.02;78.04;93924.13;5062861;28;20096;-76
2023/03/23 01:12:24;;;;;;;20.80;10.50;;;;;;;6.02;78.34;93918.03;5062816;28;20079;-76
2023/03/23 01:14:50;;;;;;;25.65;12.23;;;;;;;6.01;78.64;93908.53;5061522;28;20033;-76
2023/03/23 01:17:16;;;;;;;23.60;10.75;;;;;;;6.02;78.62;93915.38;5062658;28;20035;-76
2023/03/23 01:19:42;;;;;;;20.52;9.93;;;;;;;6.04;78.95;93918.53;5062661;28;20040;-76
2023/03/23 01:22:07;;;;;;;21.85;11.15;;;;;;;6.06;78.99;93911.09;5062623;28;20013;-76
2023/03/23 01:24:33;;;;;;;19.02;10.25;;;;;;;6.11;79.00;93903.13;5062665;28;20351;-76
2023/03/23 01:27:01;;;;;;;19.63;10.05;;;;;;;6.13;79.03;93908.91;5062687;28;20025;-76
2023/03/23 01:29:27;;;;;;;20.15;11.15;;;;;;;6.14;79.04;93905.19;5062428;28;20046;-76
2023/03/23 01:31:52;;;;;;;24.13;10.68;;;;;;;6.15;78.94;93906.78;5062613;28;20055;-76
2023/03/23 01:34:17;;;;;;;18.75;9.95;;;;;;;6.17;78.99;93909.16;5062437;28;20323;-76
2023/03/23 01:36:43;;;;;;;17.48;9.90;;;;;;;6.17;78.79;93909.94;5061529;28;20233;-76
2023/03/23 01:39:09;;;;;;;20.63;10.38;;;;;;;6.19;79.02;93910.44;5062710;28;20017;-76
2023/03/23 01:41:35;;;;;;;22.40;11.35;;;;;;;6.22;78.98;93904.56;5061330;28;20250;-76
2023/03/23 01:44:05;;;;;;;17.98;10.13;;;;;;;6.28;79.00;93899.22;5062388;28;20021;-76
2023/03/23 01:46:35;;;;;;;19.73;11.18;;;;;;;6.30;79.21;93905.00;5062410;28;20311;-76
2023/03/23 01:49:24;;;;;;;23.30;12.50;;;;;;;6.29;79.35;93896.28;5062164;28;20079;-76
2023/03/23 01:51:55;;;;;;;30.92;15.07;;;;;;;6.28;79.80;93897.34;5062299;28;20055;-76
2023/03/23 01:54:24;;;;;;;25.33;15.45;;;;;;;6.28;79.85;93892.03;5062192;28;20029;-76
2023/03/23 01:57:03;;;;;;;27.13;16.55;;;;;;;6.28;80.34;93893.91;5062349;28;20025;-76
2023/03/23 01:59:31;;;;;;;26.65;15.80;;;;;;;6.26;80.85;93891.53;5062423;28;20218;-76
2023/03/23 02:02:00;;;;;;;31.52;15.93;;;;;;;6.27;80.90;93889.69;5062086;28;20049;-76
2023/03/23 02:04:27;;;;;;;29.80;15.75;;;;;;;6.26;81.44;93888.13;5062293;28;20381;-76
2023/03/23 02:06:54;;;;;;;25.77;15.93;;;;;;;6.26;81.83;93883.59;5062089;28;20127;-76
2023/03/23 02:09:21;;;;;;;27.88;16.17;;;;;;;6.28;82.00;93891.25;5062222;28;20255;-76
2023/03/23 02:11:47;;;;;;;27.90;15.73;;;;;;;6.29;82.34;93892.81;5062246;28;20084;-76
2023/03/23 02:14:14;;;;;;;26.30;15.35;;;;;;;6.30;82.37;93889.13;5063809;28;20016;-76
2023/03/23 02:16:58;;;;;;;28.88;16.48;;;;;;;6.31;82.35;93890.69;5065993;28;20021;-76
2023/03/23 02:19:51;;;;;;;23.67;14.70;;;;;;;6.31;82.03;93890.69;5064725;28;20285;-76
2023/03/23 02:22:38;;;;;;;23.88;14.38;;;;;;;6.31;82.14;93886.19;5065862;28;20033;-76
2023/03/23 02:25:25;;;;;;;22.88;13.45;;;;;;;6.30;82.01;93899.72;5065659;28;20327;-76
2023/03/23 02:28:01;;;;;;;22.90;13.60;;;;;;;6.32;82.06;93892.28;5065738;28;20024;-76
2023/03/23 02:30:40;;;;;;;21.08;12.88;;;;;;;6.39;81.91;93893.50;5065623;28;20071;-76
2023/03/23 02:33:24;;;;;;;19.20;10.75;;;;;;;6.40;81.30;93892.41;5065326;28;20024;-76
2023/03/23 02:36:02;;;;;;;16.40;9.57;;;;;;;6.36;81.52;93888.75;5065513;28;20331;-76
2023/03/23 02:39:11;;;;;;;16.60;10.18;;;;;;;6.35;81.63;93895.16;5065488;28;20020;-76
2023/03/23 02:41:44;;;;;;;16.08;9.52;;;;;;;6.35;81.65;93891.69;5064132;28;20071;-76
2023/03/23 02:44:11;;;;;;;;;;;;;;;6.35;81.29;93894.34;5065964;28;20066;-76
2023/03/23 02:46:37;;;;;;;17.45;9.02;;;;;;;6.29;81.29;93892.81;5065160;28;19964;-76
2023/03/23 02:49:08;;;;;;;17.70;9.35;;;;;;;6.28;80.91;93886.75;5065137;28;20053;-76
2023/03/23 02:51:36;;;;;;;21.38;9.15;;;;;;;6.31;80.64;93896.78;5065371;28;20044;-76
2023/03/23 02:54:04;;;;;;;16.55;9.95;;;;;;;6.32;80.75;93897.56;5065194;28;20028;-76
2023/03/23 02:56:32;;;;;;;14.63;8.07;;;;;;;6.29;80.59;93903.41;5065216;28;20020;-75
2023/03/23 02:58:58;;;;;;;16.00;9.40;;;;;;;6.29;80.47;93901.56;5064847;28;20039;-75
2023/03/23 03:01:28;;;;;;;14.73;8.25;;;;;;;6.32;80.29;93918.75;5065075;28;20016;-75
2023/03/23 03:03:57;;;;;;;13.27;8.35;;;;;;;6.32;80.28;93913.44;5065138;28;20104;-75
2023/03/23 03:06:35;;;;;;;13.60;7.40;;;;;;;6.34;80.01;93908.66;5065167;28;20028;-75
2023/03/23 03:09:09;;;;;;;12.25;7.97;;;;;;;6.34;79.79;93913.94;5063861;28;20044;-75
2023/03/23 03:11:39;;;;;;;15.77;8.60;;;;;;;6.35;79.85;93916.31;5064894;28;20234;-75
2023/03/23 03:14:17;;;;;;;16.17;8.23;;;;;;;6.38;79.66;93922.91;5064790;28;20084;-75
2023/03/23 03:17:20;;;;;;;14.00;7.85;;;;;;;6.36;79.48;93930.34;5065011;28;20078;-75
2023/03/23 03:19:50;;;;;;;18.90;9.82;;;;;;;6.33;79.53;93942.28;5053171;28;20327;-75
2023/03/23 03:22:17;;;;;;;20.92;12.82;;;;;;;6.30;80.03;93936.78;5064581;28;20028;-75
2023/03/23 03:24:44;;;;;;;24.38;14.23;;;;;;;6.37;80.13;93942.50;5064489;28;20036;-75
2023/03/23 03:27:16;;;;;;;26.17;14.60;;;;;;;6.38;80.27;93936.91;5064216;28;20035;-75
2023/03/23 03:29:45;;;;;;;29.77;16.60;;;;;;;6.34;80.25;93935.91;5064808;28;20066;-75
2023/03/23 03:32:18;;;;;;;26.63;15.40;;;;;;;6.31;80.27;93933.84;5064682;28;20299;-75
2023/03/23 03:34:43;;;;;;;28.17;15.82;;;;;;;6.28;80.37;93933.63;5064136;28;20017;-74
2023/03/23 03:37:11;;;;;;;28.17;16.63;;;;;;;6.30;80.54;93934.13;5064498;28;20083;-74
2023/03/23 03:39:37;;;;;;;26.85;16.20;;;;;;;6.29;80.72;93935.19;5064318;28;20017;-75
2023/03/23 03:42:06;;;;;;;27.48;15.95;;;;;;;6.27;80.72;93937.31;5064179;28;20052;-74
2023/03/23 03:44:33;;;;;;;23.92;14.05;;;;;;;6.29;80.67;93936.00;5064237;28;20071;-75
2023/03/23 03:46:58;;;;;;;22.55;13.13;;;;;;;6.26;80.65;93930.47;5064100;28;20251;-75
2023/03/23 03:49:25;;;;;;;21.83;12.82;;;;;;;6.27;80.45;93938.13;5064082;28;20045;-75
2023/03/23 03:51:50;;;;;;;18.55;11.43;;;;;;;6.25;79.59;93926.22;5064255;28;20025;-75
2023/03/23 03:54:16;;;;;;;19.40;10.50;;;;;;;6.19;79.59;93928.97;5063982;28;20024;-75
2023/03/23 03:56:41;;;;;;;23.08;12.43;;;;;;;6.09;79.74;93934.38;5063919;28;20373;-75
2023/03/23 03:59:09;;;;;;;21.25;10.85;;;;;;;5.87;80.27;93923.47;5064016;28;20021;-75
2023/03/23 04:01:36;;;;;;;24.33;12.07;;;;;;;5.89;80.18;93932.72;5063865;28;20046;-75
2023/03/23 04:04:07;;;;;;;21.95;12.00;;;;;;;5.88;80.40;93931.13;5063819;28;20048;-75
2023/03/23 04:06:35;;;;;;;16.23;10.50;;;;;;;5.85;80.52;93928.25;5063863;28;20092;-74
2023/03/23 04:09:05;;;;;;;25.73;10.95;;;;;;;5.83;80.40;93931.19;5063798;28;20029;-74
2023/03/23 04:11:31;;;;;;;18.50;10.10;;;;;;;5.83;80.21;93931.19;5063890;28;20039;-75
2023/03/23 04:13:56;;;;;;;20.58;10.68;;;;;;;5.74;79.54;93920.44;5063554;28;20322;-74
2023/03/23 04:16:21;;;;;;;16.52;9.05;;;;;;;5.65;79.91;93914.19;5063719;28;20033;-74
2023/03/23 04:18:47;;;;;;;17.45;9.02;;;;;;;5.59;79.96;93921.38;5063701;28;20024;-74
2023/03/23 04:21:14;;;;;;;22.60;8.95;;;;;;;5.59;80.10;93917.94;5063625;28;20048;-74
2023/03/23 04:23:40;;;;;;;16.85;8.75;;;;;;;5.60;80.27;93925.59;5063643;28;20067;-75
2023/03/23 04:26:05;;;;;;;16.00;8.57;;;;;;;5.60;80.04;93932.75;5063296;28;20100;-75
2023/03/23 04:28:33;;;;;;;17.45;7.68;;;;;;;5.60;80.19;93930.88;5062246;28;20025;-75
2023/03/23 04:31:00;;;;;;;19.23;8.15;;;;;;;5.63;80.30;93935.59;5063422;28;20047;-75
2023/03/23 04:33:27;;;;;;;13.15;7.88;;;;;;;5.68;80.12;93932.13;5063305;28;20036;-75
2023/03/23 04:35:54;;;;;;;17.42;8.85;;;;;;;5.74;80.28;93933.66;5063257;28;20063;-75
2023/03/23 04:38:23;;;;;;;20.70;7.93;;;;;;;5.77;80.41;93935.72;5063097;28;20027;-75
2023/03/23 04:40:53;;;;;;;14.70;7.97;;;;;;;5.82;80.45;93927.75;5062885;28;20051;-75
2023/03/23 04:43:21;;;;;;;13.60;7.60;;;;;;;5.89;80.55;93931.94;5063207;28;20032;-74
2023/03/23 04:45:51;;;;;;;16.90;8.80;;;;;;;5.96;80.73;93930.56;5063153;28;20052;-74
2023/03/23 04:48:17;;;;;;;15.70;9.35;;;;;;;6.05;80.63;93935.22;5063130;28;20235;-75
2023/03/23 04:50:43;;;;;;;15.95;9.80;;;;;;;6.09;80.85;93942.31;5063158;28;20039;-75
2023/03/23 04:53:09;;;;;;;17.50;8.93;;;;;;;6.18;80.67;93943.25;5063097;28;20048;-76
2023/03/23 04:55:36;;;;;;;14.63;8.70;;;;;;;6.28;80.48;93944.22;5062931;28;20021;-75
2023/03/23 04:58:05;;;;;;;30.50;14.95;;;;;;;6.28;79.31;93941.56;5062877;28;20311;-75
2023/03/23 05:00:32;;;;;;;23.27;13.82;;;;;;;6.20;78.51;93946.41;5062899;28;20021;-75
2023/03/23 05:02:58;;;;;;;27.63;16.73;;;;;;;6.18;78.16;93950.41;5062840;28;20032;-75
2023/03/23 05:05:25;;;;;;;32.28;17.15;;;;;;;6.10;78.51;93954.47;5062681;28;20073;-75
2023/03/23 05:07:51;;;;;;;44.15;18.58;;;;;;;6.02;79.01;93950.59;5062348;28;20028;-75
2023/03/23 05:10:17;;;;;;;39.30;17.17;;;;;;;6.03;79.58;93954.03;5062418;28;20021;-76
2023/03/23 05:12:43;;;;;;;32.53;16.83;;;;;;;5.99;79.84;93955.66;5062657;28;20023;-75
2023/03/23 05:15:10;;;;;;;35.25;18.35;;;;;;;5.97;80.37;93960.44;5062548;28;20021;-75
2023/03/23 05:17:36;;;;;;;39.92;20.67;;;;;;;5.92;81.28;93960.44;5062521;28;20021;-75
2023/03/23 05:20:05;;;;;;;40.90;21.00;;;;;;;5.79;82.54;93967.97;5062366;28;20020;-76
2023/03/23 05:22:33;;;;;;;41.10;21.25;;;;;;;5.70;83.44;93960.94;5062330;28;20087;-75
2023/03/23 05:25:02;;;;;;;41.88;22.42;;;;;;;5.67;84.35;93966.78;5062346;28;20314;-75
2023/03/23 05:27:30;;;;;;;45.05;24.95;;;;;;;5.69;84.26;93969.94;5062416;28;20127;-75
2023/03/23 05:29:55;;;;;;;46.05;24.15;;;;;;;5.68;84.66;93969.16;5062475;28;20020;-75
2023/03/23 05:32:21;;;;;;;42.58;21.65;;;;;;;5.71;84.48;93976.53;5062447;28;20027;-76
2023/03/23 05:34:46;;;;;;;48.67;23.58;;;;;;;5.81;84.91;93979.06;5062453;28;20087;-75
2023/03/23 05:37:13;;;;;;;44.88;22.73;;;;;;;5.89;84.92;93972.38;5062291;28;20025;-76
2023/03/23 05:39:39;;;;;;;53.85;23.38;;;;;;;5.94;85.11;93972.34;5062445;28;20239;-75
2023/03/23 05:42:06;;;;;;;41.97;21.60;;;;;;;5.91;84.50;93982.69;5062333;28;20028;-75
2023/03/23 05:44:31;;;;;;;43.80;23.25;;;;;;;5.94;84.38;93990.88;5062548;28;20091;-75
2023/03/23 05:46:57;;;;;;;43.08;22.20;;;;;;;6.03;83.84;93986.56;5062335;28;20311;-75
2023/03/23 05:49:22;;;;;;;42.40;21.98;;;;;;;6.07;83.91;93989.44;5064009;28;20040;-75
2023/03/23 05:51:49;;;;;;;54.63;24.05;;;;;;;6.08;83.75;93991.00;5065300;28;20095;-74
2023/03/23 05:54:16;;;;;;;47.40;22.55;;;;;;;6.04;83.69;93992.63;5066286;28;20029;-75
2023/03/23 05:56:42;;;;;;;55.85;28.23;;;;;;;6.08;83.88;93998.94;5066333;28;20200;-75
2023/03/23 05:59:09;;;;;;;43.70;23.95;;;;;;;6.18;83.68;93992.75;5066111;28;20095;-74
2023/03/23 06:01:35;;;;;;;41.10;19.30;;;;;;;6.30;83.35;93997.66;5065974;28;20021;-74
2023/03/23 06:04:01;;;;;;;35.22;17.00;;;;;;;6.34;83.01;93994.16;5066109;28;20219;-75
2023/03/23 06:06:29;;;;;;;35.38;18.85;;;;;;;6.42;82.17;93992.75;5065982;28;20016;-74
2023/03/23 06:08:56;;;;;;;34.97;19.20;;;;;;;6.46;82.29;93999.06;5065904;28;20028;-74
2023/03/23 06:11:23;;;;;;;41.72;20.13;;;;;;;6.42;82.62;93992.75;5066020;28;20013;-76
2023/03/23 06:13:48;;;;;;;34.15;18.45;;;;;;;6.49;82.40;94005.63;5066044;28;20020;-74
2023/03/23 06:16:14;;;;;;;30.63;16.98;;;;;;;6.52;81.92;93992.63;5065946;28;20247;-74
2023/03/23 06:18:40;;;;;;;36.45;17.60;;;;;;;6.53;81.57;93999.47;5065955;28;20016;-75
2023/03/23 06:21:07;;;;;;;33.90;18.85;;;;;;;6.60;81.66;93999.94;5065655;28;20028;-74
2023/03/23 06:23:34;;;;;;;40.10;18.40;;;;;;;6.72;81.47;94001.41;5065634;28;20647;-74
2023/03/23 06:26:03;;;;;;;37.45;19.02;;;;;;;6.82;81.10;94001.25;5065590;28;20028;-76
2023/03/23 06:28:29;;;;;;;39.58;20.65;;;;;;;6.83;80.84;94000.16;5065699;28;20040;-73
2023/03/23 06:30:54;;;;;;;38.92;19.05;;;;;;;6.85;80.86;94005.97;5065684;28;20017;-73
2023/03/23 06:33:20;;;;;;;46.72;19.52;;;;;;;6.76;81.05;93997.09;5065474;28;20331;-73
2023/03/23 06:35:45;;;;;;;40.10;22.10;;;;;;;6.79;81.40;94002.59;5064123;28;20025;-73
2023/03/23 06:38:12;;;;;;;45.00;21.90;;;;;;;6.83;81.57;94010.78;5065382;28;20017;-73
2023/03/23 06:40:38;;;;;;;41.70;19.67;;;;;;;6.84;81.95;94004.41;5065433;28;20235;-73
2023/03/23 06:43:04;;;;;;;36.88;18.63;;;;;;;6.85;81.30;94008.63;5065420;28;20048;-73
2023/03/23 06:45:30;;;;;;;38.63;19.35;;;;;;;6.88;80.82;94009.91;5065299;28;20075;-74
2023/03/23 06:47:56;;;;;;;43.08;22.70;;;;;;;6.85;80.57;94019.22;5065207;28;20098;-73
2023/03/23 06:50:21;;;;;;;37.70;19.73;;;;;;;6.93;80.35;94012.50;5064958;28;20096;-73
2023/03/23 06:52:48;;;;;;;35.83;19.88;;;;;;;6.97;80.38;94014.28;5065265;28;20017;-73
2023/03/23 06:55:15;;;;;;;30.70;19.17;;;;;;;7.02;80.47;94022.19;5065221;28;20021;-73
2023/03/23 06:57:42;;;;;;;34.05;19.38;;;;;;;7.14;80.61;94027.03;5065230;28;20020;-74
2023/03/23 07:00:11;;;;;;;46.83;21.10;;;;;;;7.23;80.42;94024.53;5063851;28;20021;-74
2023/03/23 07:02:37;;;;;;;36.90;20.70;;;;;;;7.30;80.24;94024.94;5064645;28;20028;-73
2023/03/23 07:05:03;;;;;;;32.92;18.63;;;;;;;7.39;79.92;94028.53;5064917;28;20059;-73
2023/03/23 07:07:29;;;;;;;43.72;19.88;;;;;;;7.49;80.12;94027.59;5064437;28;20370;-73
2023/03/23 07:09:55;;;;;;;34.28;19.77;;;;;;;7.59;80.17;94024.78;5064042;28;20017;-73
2023/03/23 07:12:21;;;;;;;46.15;21.25;;;;;;;7.64;79.85;94027.34;5064546;28;20020;-73
2023/03/23 07:14:46;;;;;;;57.88;24.58;;;;;;;7.75;79.72;94027.19;5064399;28;20032;-74
2023/03/23 07:17:12;;;;;;;50.58;24.05;;;;;;;7.93;79.69;94022.91;5064681;28;20033;-74
2023/03/23 07:19:38;;;;;;;50.25;22.95;;;;;;;8.02;79.37;94021.16;5064264;28;20243;-74
2023/03/23 07:22:07;;;;;;;50.33;22.60;;;;;;;8.14;79.51;94026.78;5064351;28;20037;-74
2023/03/23 07:24:34;;;;;;;50.15;22.00;;;;;;;8.26;79.13;94025.50;5064687;28;20029;-74
2023/03/23 07:26:59;;;;;;;38.53;21.13;;;;;;;8.36;78.69;94014.69;5064500;28;20039;-74
2023/03/23 07:29:25;;;;;;;41.50;19.65;;;;;;;8.51;77.95;94017.09;5064396;28;20049;-73
2023/03/23 07:31:52;;;;;;;35.53;20.02;;;;;;;8.60;77.64;94015.31;5064262;28;20029;-73
2023/03/23 07:34:18;;;;;;;38.95;20.08;;;;;;;8.75;77.50;94021.41;5064208;28;20092;-73
2023/03/23 07:36:44;;;;;;;41.65;21.02;;;;;;;8.86;76.83;94020.13;5064273;28;20025;-73
2023/03/23 07:39:10;;;;;;;36.38;20.05;;;;;;;8.93;76.18;94020.50;5064244;28;20063;-73
2023/03/23 07:41:35;;;;;;;35.70;18.77;;;;;;;9.02;75.08;94025.91;5064175;28;20315;-73
2023/03/23 07:44:01;;;;;;;42.97;19.05;;;;;;;9.09;74.86;94028.16;5064044;28;20027;-73
2023/03/23 07:46:26;;;;;;;47.95;20.33;;;;;;;9.14;75.17;94028.84;5063908;28;20044;-73
2023/03/23 07:48:52;;;;;;;36.53;20.58;;;;;;;9.15;74.81;94032.28;5063829;28;20052;-75
2023/03/23 07:51:18;;;;;;;40.00;19.20;;;;;;;9.25;74.90;94029.38;5064052;28;20048;-72
2023/03/23 07:53:46;;;;;;;37.55;17.63;;;;;;;9.26;73.74;94041.63;5064035;28;20032;-72
2023/03/23 07:56:14;;;;;;;36.35;16.70;;;;;;;9.37;72.67;94034.19;5064145;28;20013;-72
2023/03/23 07:58:41;;;;;;;33.38;18.45;;;;;;;9.47;72.07;94038.50;5063104;28;20158;-73
2023/03/23 08:01:08;;;;;;;35.03;19.17;;;;;;;9.48;72.41;94042.72;5063818;28;20064;-73
2023/03/23 08:03:33;;;;;;;34.25;17.13;;;;;;;9.49;72.33;94045.09;5063852;28;20100;-73
2023/03/23 08:05:59;;;;;;;28.02;16.10;;;;;;;9.49;71.01;94041.66;5064010;28;20091;-73
2023/03/23 08:08:25;;;;;;;43.72;17.83;;;;;;;9.50;71.68;94041.31;5063618;28;20043;-73
2023/03/23 08:10:51;;;;;;;33.47;18.42;;;;;;;9.62;71.58;94043.44;5063729;28;20024;-73
2023/03/23 08:13:16;;;;;;;33.30;17.08;;;;;;;9.65;71.73;94048.19;5063350;28;20032;-73
2023/03/23 08:15:43;;;;;;;29.40;15.93;;;;;;;9.74;70.48;94046.34;5063558;28;20058;-73
2023/03/23 08:18:08;;;;;;;28.30;15.60;;;;;;;9.91;68.81;94042.22;5063478;28;20024;-73
2023/03/23 08:20:35;;;;;;;27.90;14.30;;;;;;;10.01;68.20;94045.44;5063721;28;20044;-73
2023/03/23 08:23:02;;;;;;;29.05;15.23;;;;;;;10.12;68.02;94042.53;5063459;28;20029;-73
2023/03/23 08:25:30;;;;;;;33.20;13.65;;;;;;;10.28;66.91;94048.22;5063575;28;20021;-73
2023/03/23 08:27:56;;;;;;;31.38;15.95;;;;;;;10.40;66.59;94041.28;5063351;28;20197;-73
2023/03/23 08:30:22;;;;;;;27.00;15.40;;;;;;;10.48;65.78;94037.06;5063189;28;20043;-73
2023/03/23 08:32:49;;;;;;;29.35;15.30;;;;;;;10.62;65.88;94039.63;5063391;28;20021;-73
2023/03/23 08:35:15;;;;;;;25.00;13.50;;;;;;;10.77;65.81;94043.78;5063407;28;20021;-72
2023/03/23 08:37:44;;;;;;;28.08;12.80;;;;;;;10.91;64.44;94040.97;5063379;28;20063;-73
2023/03/23 08:40:13;;;;;;;22.17;12.02;;;;;;;11.06;62.46;94037.88;5063469;28;20021;-73
2023/03/23 08:42:42;;;;;;;19.33;10.73;;;;;;;11.19;60.28;94041.50;5063255;28;20036;-73
2023/03/23 08:45:11;;;;;;;21.13;9.38;;;;;;;11.28;59.78;94042.31;5063120;28;20112;-73
2023/03/23 08:47:37;;;;;;;19.17;8.63;;;;;;;11.36;59.71;94041.53;5062903;28;20020;-73
2023/03/23 08:50:05;;;;;;;17.92;8.00;;;;;;;11.49;57.48;94044.38;5063137;28;20044;-74
2023/03/23 08:52:30;;;;;;;13.15;7.28;;;;;;;11.62;55.35;94040.75;5062904;28;20042;-74
2023/03/23 08:54:56;;;;;;;12.32;4.88;;;;;;;11.82;53.73;94044.66;5063047;28;20103;-73
2023/03/23 08:57:23;;;;;;;9.93;5.68;;;;;;;11.92;52.88;94043.59;5062867;28;20024;-73
2023/03/23 08:59:48;;;;;;;9.73;5.50;;;;;;;12.04;51.23;94035.72;5062699;28;20033;-72
2023/03/23 09:02:14;;;;;;;13.77;6.78;;;;;;;12.14;50.30;94037.25;5062719;28;20032;-73
2023/03/23 09:04:42;;;;;;;12.70;6.20;;;;;;;12.27;50.48;94038.16;5062983;28;20021;-72
2023/03/23 09:07:12;;;;;;;26.55;7.00;;;;;;;12.42;52.72;94046.47;5062620;28;20032;-74
2023/03/23 09:09:39;;;;;;;11.88;6.78;;;;;;;12.53;50.97;94046.88;5062711;28;20020;-72
2023/03/23 09:12:05;;;;;;;11.57;6.05;;;;;;;12.52;50.42;94039.97;5061589;28;20218;-73
2023/03/23 09:14:31;;;;;;;19.10;7.88;;;;;;;12.58;50.50;94036.03;5062683;28;20021;-72
2023/03/23 09:16:57;;;;;;;11.57;6.97;;;;;;;12.68;51.61;94034.91;5062810;28;20024;-73
2023/03/23 09:19:22;;;;;;;14.65;7.55;;;;;;;12.77;49.92;94040.19;5062625;28;20095;-73
2023/03/23 09:21:48;;;;;;;12.15;7.13;;;;;;;12.75;49.54;94037.06;5062650;28;20099;-73
2023/03/23 09:24:14;;;;;;;14.70;7.18;;;;;;;12.75;49.37;94040.50;5061936;28;20322;-74
2023/03/23 09:26:39;;;;;;;10.57;7.15;;;;;;;12.82;50.11;94026.63;5062748;28;20040;-74
2023/03/23 09:29:04;;;;;;;13.70;7.15;;;;;;;12.86;48.95;94032.91;5062595;28;20029;-73
2023/03/23 09:31:31;;;;;;;12.43;7.03;;;;;;;13.01;50.28;94032.34;5062501;28;20031;-73
2023/03/23 09:33:58;;;;;;;14.32;7.18;;;;;;;13.17;50.00;94021.09;5062376;28;20032;-74
2023/03/23 09:36:25;;;;;;;11.50;6.53;;;;;;;13.23;47.23;94023.25;5062718;28;20314;-73
2023/03/23 09:38:52;;;;;;;17.02;7.70;;;;;;;13.36;48.33;94023.34;5062521;28;20093;-73
2023/03/23 09:41:36;;;;;;;18.25;7.35;;;;;;;13.56;48.64;94016.44;5062272;28;20255;-73
2023/03/23 09:44:11;;;;;;;19.55;7.20;;;;;;;13.67;48.63;94017.59;5062346;28;20024;-73
2023/03/23 09:46:47;;;;;;;14.02;7.88;;;;;;;13.79;47.99;94016.88;5062550;28;20059;-73
2023/03/23 09:49:21;;;;;;;15.90;7.28;;;;;;;13.90;46.77;94023.41;5062597;28;20150;-73
2023/03/23 09:52:10;;;;;;;14.65;7.18;;;;;;;14.04;46.00;94015.03;5062355;28;20028;-73
2023/03/23 09:54:46;;;;;;;16.85;7.03;;;;;;;14.16;46.29;94007.03;5059318;28;20083;-73
2023/03/23 09:57:22;;;;;;;12.20;7.13;;;;;;;14.25;46.63;94010.41;5062361;28;20048;-73
2023/03/23 10:00:05;;;;;;;11.10;6.72;;;;;;;14.29;45.30;94007.06;5062288;28;20096;-73
2023/03/23 10:02:38;;;;;;;16.63;6.85;;;;;;;14.34;45.54;94009.53;5062247;28;20036;-74
2023/03/23 10:05:31;;;;;;;19.48;7.63;;;;;;;14.32;46.07;94009.09;5062193;28;20104;-74
2023/03/23 10:07:57;;;;;;;12.90;6.47;;;;;;;14.35;45.29;94009.22;5062304;28;20021;-73
2023/03/23 10:10:32;;;;;;;23.55;7.28;;;;;;;14.31;45.44;94007.50;5062180;28;20389;-74
2023/03/23 10:13:17;;;;;;;20.27;7.80;;;;;;;14.45;45.67;94006.09;5062235;28;20013;-74
2023/03/23 10:15:44;;;;;;;18.20;9.88;;;;;;;14.57;45.60;94000.00;5062431;28;20129;-73
2023/03/23 10:18:15;;;;;;;20.13;7.53;;;;;;;14.59;44.98;94002.31;5062284;28;20040;-75
2023/03/23 10:21:01;;;;;;;24.85;7.20;;;;;;;14.50;44.94;93993.59;5062165;28;20032;-73
2023/03/23 10:23:42;;;;;;;12.50;5.90;;;;;;;14.59;44.70;93997.75;5062069;28;20032;-74
2023/03/23 10:26:38;;;;;;;10.43;6.00;;;;;;;14.72;44.70;94000.44;5062052;28;20323;-73
2023/03/23 10:29:24;;;;;;;10.43;6.38;;;;;;;14.79;43.82;93997.97;5061899;28;20235;-73
2023/03/23 10:32:13;;;;;;;10.75;7.05;;;;;;;14.75;44.03;93997.84;5061477;28;20024;-72
2023/03/23 10:35:02;;;;;;;12.20;6.15;;;;;;;14.79;44.54;93996.06;5062370;28;20025;-72
2023/03/23 10:37:33;;;;;;;13.77;5.82;;;;;;;14.83;44.25;93993.50;5065504;28;20105;-73
2023/03/23 10:40:01;;;;;;;10.55;6.63;;;;;;;14.65;42.20;93992.94;5065593;28;20261;-73
2023/03/23 10:42:39;;;;;;;9.23;6.00;;;;;;;14.55;42.74;93996.03;5065401;28;20025;-73
2023/03/23 10:45:32;;;;;;;12.85;6.32;;;;;;;14.53;43.99;93987.53;5065254;28;20028;-73
2023/03/23 10:48:07;;;;;;;13.98;5.85;;;;;;;14.63;43.90;93987.13;5063951;28;20048;-73
2023/03/23 10:50:35;;;;;;;10.93;6.20;;;;;;;14.72;42.10;93992.41;5064060;28;20016;-73
2023/03/23 10:53:12;;;;;;;9.65;5.72;;;;;;;14.57;42.38;93978.53;5064033;28;20024;-73
2023/03/23 10:55:40;;;;;;;12.82;6.00;;;;;;;14.49;44.57;93982.09;5064048;28;20048;-74
2023/03/23 10:58:10;;;;;;;14.13;6.50;;;;;;;14.67;45.01;93981.88;5064045;28;20031;-73
2023/03/23 11:00:47;;;;;;;9.32;5.40;;;;;;;14.75;43.46;93979.06;5064328;28;20074;-72
2023/03/23 11:03:15;;;;;;;16.85;6.28;;;;;;;14.63;43.82;93982.56;5065053;28;20254;-74
2023/03/23 11:05:59;;;;;;;11.63;6.22;;;;;;;14.88;44.26;93977.19;5065335;28;20033;-74
2023/03/23 11:08:33;;;;;;;11.20;5.95;;;;;;;14.85;41.49;93988.59;5064916;28;20104;-73
2023/03/23 11:11:09;;;;;;;12.73;5.90;;;;;;;14.67;42.23;93979.19;5064939;28;20052;-73
2023/03/23 11:13:41;;;;;;;10.82;5.35;;;;;;;14.77;42.96;93976.06;5063660;28;20100;-74
2023/03/23 11:16:09;;;;;;;9.05;5.05;;;;;;;15.02;43.61;93977.63;5065003;28;20044;-72
2023/03/23 11:18:40;;;;;;;10.65;5.57;;;;;;;15.16;41.66;93971.09;5064645;28;20025;-72
2023/03/23 11:21:08;;;;;;;9.57;5.82;;;;;;;15.33;43.28;93967.38;5064545;28;20270;-71
2023/03/23 11:23:41;;;;;;;9.93;6.28;;;;;;;15.43;42.45;93965.00;5064656;28;20025;-72
2023/03/23 11:26:18;;;;;;;9.65;5.72;;;;;;;15.63;42.12;93965.13;5064443;28;20044;-71
2023/03/23 11:28:49;;;;;;;11.88;6.28;;;;;;;15.77;42.14;93968.28;5064531;28;20123;-71
2023/03/23 11:31:16;;;;;;;15.83;6.23;;;;;;;15.94;41.28;93955.66;5064530;28;20215;-73
2023/03/23 11:33:58;;;;;;;11.45;5.47;;;;;;;15.98;39.06;93951.13;5064599;28;20204;-74
2023/03/23 11:36:36;;;;;;;10.32;6.20;;;;;;;15.94;39.53;93945.66;5064452;28;20212;-73